sensor_id;sensor_type;location;lat;lon;timestamp;pressure;altitude;pressure_sealevel;temperature;humidity
71384;BME280;67558;52.166;5.004;2023-05-10T00:02:18;100913.69;;;16.25;70.52
71384;BME280;67558;52.166;5.004;2023-05-10T00:04:43;100920.69;;;16.26;70.27
71384;BME280;67558;52.166;5.004;2023-05-10T00:07:08;100917.00;;;16.22;70.32
71384;BME280;67558;52.166;5.004;2023-05-10T00:09:35;100917.06;;;16.17;70.36
71384;BME280;67558;52.166;5.004;2023-05-10T00:12:00;100921.38;;;16.18;70.20
71384;BME280;67558;52.166;5.004;2023-05-10T00:14:26;100909.09;;;16.12;70.09
71384;BME280;67558;52.166;5.004;2023-05-10T00:16:51;100915.06;;;16.09;70.43
71384;BME280;67558;52.166;5.004;2023-05-10T00:19:16;100911.91;;;16.07;70.16
71384;BME280;67558;52.166;5.004;2023-05-10T00:21:42;100913.88;;;16.01;70.25
71384;BME280;67558;52.166;5.004;2023-05-10T00:24:07;100910.41;;;16.01;70.39
71384;BME280;67558;52.166;5.004;2023-05-10T00:26:33;100909.78;;;16.04;70.09
71384;BME280;67558;52.166;5.004;2023-05-10T00:28:58;100890.09;;;15.89;70.18
71384;BME280;67558;52.166;5.004;2023-05-10T00:31:23;100903.50;;;15.94;70.54
71384;BME280;67558;52.166;5.004;2023-05-10T00:33:49;100908.88;;;15.94;70.18
71384;BME280;67558;52.166;5.004;2023-05-10T00:36:14;100912.28;;;16.00;70.42
71384;BME280;67558;52.166;5.004;2023-05-10T00:38:39;100914.28;;;15.94;69.78
71384;BME280;67558;52.166;5.004;2023-05-10T00:41:05;100928.28;;;15.96;70.14
71384;BME280;67558;52.166;5.004;2023-05-10T00:43:31;100924.28;;;15.94;70.27
71384;BME280;67558;52.166;5.004;2023-05-10T00:45:58;100915.97;;;15.90;70.48
71384;BME280;67558;52.166;5.004;2023-05-10T00:48:23;100922.56;;;15.84;70.28
71384;BME280;67558;52.166;5.004;2023-05-10T00:50:49;100926.94;;;15.80;70.83
71384;BME280;67558;52.166;5.004;2023-05-10T00:53:15;100910.25;;;15.78;70.35
71384;BME280;67558;52.166;5.004;2023-05-10T00:55:41;100917.06;;;15.89;70.59
71384;BME280;67558;52.166;5.004;2023-05-10T00:58:06;100919.75;;;15.89;70.42
71384;BME280;67558;52.166;5.004;2023-05-10T01:00:33;100924.28;;;15.94;70.42
71384;BME280;67558;52.166;5.004;2023-05-10T01:02:58;100912.97;;;15.92;70.62
71384;BME280;67558;52.166;5.004;2023-05-10T01:05:24;100930.38;;;16.00;70.63
71384;BME280;67558;52.166;5.004;2023-05-10T01:07:50;100926.56;;;16.01;70.72
71384;BME280;67558;52.166;5.004;2023-05-10T01:10:15;100926.06;;;15.99;70.61
71384;BME280;67558;52.166;5.004;2023-05-10T01:12:44;100935.34;;;16.06;70.65
71384;BME280;67558;52.166;5.004;2023-05-10T01:15:10;100922.97;;;16.05;70.47
71384;BME280;67558;52.166;5.004;2023-05-10T01:17:38;100909.06;;;15.98;70.80
71384;BME280;67558;52.166;5.004;2023-05-10T01:20:06;100936.06;;;16.12;70.55
71384;BME280;67558;52.166;5.004;2023-05-10T01:30:54;100928.78;;;16.12;70.82
71384;BME280;67558;52.166;5.004;2023-05-10T01:33:49;100925.00;;;16.13;70.80
71384;BME280;67558;52.166;5.004;2023-05-10T01:36:32;100920.69;;;16.12;70.81
71384;BME280;67558;52.166;5.004;2023-05-10T01:42:08;100920.69;;;16.12;70.72
71384;BME280;67558;52.166;5.004;2023-05-10T01:44:46;100919.16;;;16.06;70.67
71384;BME280;67558;52.166;5.004;2023-05-10T01:47:31;100927.97;;;16.12;70.54
71384;BME280;67558;52.166;5.004;2023-05-10T01:50:02;100929.06;;;16.11;70.82
71384;BME280;67558;52.166;5.004;2023-05-10T01:52:34;100933.38;;;16.12;70.65
71384;BME280;67558;52.166;5.004;2023-05-10T01:55:05;100937.66;;;16.13;70.46
71384;BME280;67558;52.166;5.004;2023-05-10T01:57:34;100930.19;;;16.10;70.38
71384;BME280;67558;52.166;5.004;2023-05-10T02:00:02;100937.66;;;16.13;70.62
71384;BME280;67558;52.166;5.004;2023-05-10T02:02:30;100934.06;;;16.04;70.66
71384;BME280;67558;52.166;5.004;2023-05-10T02:04:59;100944.47;;;16.10;70.64
71384;BME280;67558;52.166;5.004;2023-05-10T02:07:26;100951.75;;;16.10;70.65
71384;BME280;67558;52.166;5.004;2023-05-10T02:09:54;100950.16;;;16.09;70.38
71384;BME280;67558;52.166;5.004;2023-05-10T02:12:21;100937.88;;;16.03;70.59
71384;BME280;67558;52.166;5.004;2023-05-10T02:14:47;100949.69;;;16.07;70.30
71384;BME280;67558;52.166;5.004;2023-05-10T02:17:14;100947.25;;;16.05;70.49
71384;BME280;67558;52.166;5.004;2023-05-10T02:19:41;100949.28;;;16.13;70.28
71384;BME280;67558;52.166;5.004;2023-05-10T02:22:07;100949.56;;;16.12;70.30
71384;BME280;67558;52.166;5.004;2023-05-10T02:24:34;100953.06;;;16.12;70.02
71384;BME280;67558;52.166;5.004;2023-05-10T02:27:02;100963.84;;;16.12;70.03
71384;BME280;67558;52.166;5.004;2023-05-10T02:29:29;100956.94;;;16.06;70.26
71384;BME280;67558;52.166;5.004;2023-05-10T02:31:57;100958.25;;;16.09;69.99
71384;BME280;67558;52.166;5.004;2023-05-10T02:34:25;100952.66;;;16.05;70.20
71384;BME280;67558;52.166;5.004;2023-05-10T02:36:52;100965.53;;;16.08;70.18
71384;BME280;67558;52.166;5.004;2023-05-10T02:39:19;100963.16;;;16.07;70.30
71384;BME280;67558;52.166;5.004;2023-05-10T02:41:46;100963.97;;;16.07;69.94
71384;BME280;67558;52.166;5.004;2023-05-10T02:44:14;100963.06;;;16.12;69.80
71384;BME280;67558;52.166;5.004;2023-05-10T02:46:40;100966.94;;;16.20;69.80
71384;BME280;67558;52.166;5.004;2023-05-10T02:49:06;100962.38;;;16.20;69.43
71384;BME280;67558;52.166;5.004;2023-05-10T02:51:34;100962.56;;;16.10;69.93
71384;BME280;67558;52.166;5.004;2023-05-10T02:54:06;100967.22;;;16.04;70.15
71384;BME280;67558;52.166;5.004;2023-05-10T02:56:36;100968.25;;;16.08;69.90
71384;BME280;67558;52.166;5.004;2023-05-10T02:59:05;100964.84;;;16.03;70.16
71384;BME280;67558;52.166;5.004;2023-05-10T03:01:31;100966.22;;;16.00;69.94
71384;BME280;67558;52.166;5.004;2023-05-10T03:03:57;100966.44;;;16.04;70.20
71384;BME280;67558;52.166;5.004;2023-05-10T03:06:22;100966.66;;;16.07;70.22
71384;BME280;67558;52.166;5.004;2023-05-10T03:08:47;100957.84;;;16.02;70.33
71384;BME280;67558;52.166;5.004;2023-05-10T03:11:39;100962.44;;;16.01;70.03
71384;BME280;67558;52.166;5.004;2023-05-10T03:17:04;100962.94;;;16.03;69.69
71384;BME280;67558;52.166;5.004;2023-05-10T03:19:44;100967.06;;;16.14;69.36
71384;BME280;67558;52.166;5.004;2023-05-10T03:22:14;100963.56;;;16.14;69.60
71384;BME280;67558;52.166;5.004;2023-05-10T03:24:42;100972.66;;;16.18;69.55
71384;BME280;67558;52.166;5.004;2023-05-10T03:27:08;100968.47;;;16.12;69.49
71384;BME280;67558;52.166;5.004;2023-05-10T03:29:34;100963.56;;;16.14;69.72
71384;BME280;67558;52.166;5.004;2023-05-10T03:32:01;100966.16;;;16.19;69.22
71384;BME280;67558;52.166;5.004;2023-05-10T03:34:26;100963.56;;;16.14;69.61
71384;BME280;67558;52.166;5.004;2023-05-10T03:36:54;100974.25;;;16.19;69.31
71384;BME280;67558;52.166;5.004;2023-05-10T03:39:20;100972.44;;;16.14;69.48
71384;BME280;67558;52.166;5.004;2023-05-10T03:41:46;100970.03;;;16.13;69.61
71384;BME280;67558;52.166;5.004;2023-05-10T03:44:11;100980.53;;;16.14;69.48
71384;BME280;67558;52.166;5.004;2023-05-10T03:46:37;100979.75;;;16.14;69.49
71384;BME280;67558;52.166;5.004;2023-05-10T03:49:02;100973.34;;;16.10;69.33
71384;BME280;67558;52.166;5.004;2023-05-10T03:51:27;100967.94;;;16.10;69.45
71384;BME280;67558;52.166;5.004;2023-05-10T03:53:56;100975.94;;;16.15;69.69
71384;BME280;67558;52.166;5.004;2023-05-10T03:56:22;100967.66;;;16.11;69.56
71384;BME280;67558;52.166;5.004;2023-05-10T03:58:47;100977.06;;;16.14;69.95
71384;BME280;67558;52.166;5.004;2023-05-10T04:01:12;100977.84;;;16.14;69.50
71384;BME280;67558;52.166;5.004;2023-05-10T04:03:38;100981.06;;;16.16;69.61
71384;BME280;67558;52.166;5.004;2023-05-10T04:06:04;100973.06;;;16.11;69.74
71384;BME280;67558;52.166;5.004;2023-05-10T04:08:29;100985.84;;;16.06;69.71
71384;BME280;67558;52.166;5.004;2023-05-10T04:11:07;100989.13;;;16.03;70.28
71384;BME280;67558;52.166;5.004;2023-05-10T04:13:33;100976.22;;;16.00;70.09
71384;BME280;67558;52.166;5.004;2023-05-10T04:15:59;100949.34;;;15.94;69.90
71384;BME280;67558;52.166;5.004;2023-05-10T04:18:24;100977.75;;;16.06;69.79
71384;BME280;67558;52.166;5.004;2023-05-10T04:20:49;100983.03;;;16.11;69.78
71384;BME280;67558;52.166;5.004;2023-05-10T04:23:15;100985.44;;;16.12;69.64
71384;BME280;67558;52.166;5.004;2023-05-10T04:25:41;100976.72;;;16.02;70.14
71384;BME280;67558;52.166;5.004;2023-05-10T04:28:07;100988.91;;;15.99;70.19
71384;BME280;67558;52.166;5.004;2023-05-10T04:30:32;100977.72;;;15.92;70.58
71384;BME280;67558;52.166;5.004;2023-05-10T04:32:58;100999.44;;;16.01;70.66
71384;BME280;67558;52.166;5.004;2023-05-10T04:35:23;100993.31;;;15.95;70.21
71384;BME280;67558;52.166;5.004;2023-05-10T04:37:48;100987.63;;;15.96;70.13
71384;BME280;67558;52.166;5.004;2023-05-10T04:40:14;101004.63;;;16.11;70.16
71384;BME280;67558;52.166;5.004;2023-05-10T04:42:40;100996.13;;;16.04;70.37
71384;BME280;67558;52.166;5.004;2023-05-10T04:45:06;101004.50;;;16.02;70.08
71384;BME280;67558;52.166;5.004;2023-05-10T04:47:32;100997.03;;;15.99;70.19
71384;BME280;67558;52.166;5.004;2023-05-10T04:49:57;100993.22;;;16.00;70.19
71384;BME280;67558;52.166;5.004;2023-05-10T04:52:23;100998.03;;;16.03;70.21
71384;BME280;67558;52.166;5.004;2023-05-10T04:54:48;100998.06;;;16.45;68.82
71384;BME280;67558;52.166;5.004;2023-05-10T04:57:14;100993.38;;;16.50;68.17
71384;BME280;67558;52.166;5.004;2023-05-10T04:59:39;100985.38;;;16.59;67.65
71384;BME280;67558;52.166;5.004;2023-05-10T05:02:05;101004.34;;;16.68;67.67
71384;BME280;67558;52.166;5.004;2023-05-10T05:04:30;101004.16;;;16.36;68.41
71384;BME280;67558;52.166;5.004;2023-05-10T05:06:56;101018.38;;;16.28;68.98
71384;BME280;67558;52.166;5.004;2023-05-10T05:09:21;101011.34;;;16.13;69.49
71384;BME280;67558;52.166;5.004;2023-05-10T05:11:47;101017.41;;;16.05;69.62
71384;BME280;67558;52.166;5.004;2023-05-10T05:14:12;101010.84;;;16.11;69.33
71384;BME280;67558;52.166;5.004;2023-05-10T05:16:37;101016.25;;;16.11;69.31
71384;BME280;67558;52.166;5.004;2023-05-10T05:19:03;101035.03;;;16.16;69.24
71384;BME280;67558;52.166;5.004;2023-05-10T05:21:28;101036.31;;;16.19;68.88
71384;BME280;67558;52.166;5.004;2023-05-10T05:23:54;101023.81;;;16.09;69.01
71384;BME280;67558;52.166;5.004;2023-05-10T05:26:19;101040.41;;;16.16;68.90
71384;BME280;67558;52.166;5.004;2023-05-10T05:28:45;101035.63;;;16.13;68.76
71384;BME280;67558;52.166;5.004;2023-05-10T05:31:10;101047.72;;;16.16;68.73
71384;BME280;67558;52.166;5.004;2023-05-10T05:33:36;101031.91;;;16.09;68.93
71384;BME280;67558;52.166;5.004;2023-05-10T05:36:03;101048.63;;;16.11;68.80
71384;BME280;67558;52.166;5.004;2023-05-10T05:38:29;101046.72;;;16.12;68.69
71384;BME280;67558;52.166;5.004;2023-05-10T05:40:54;101043.78;;;16.08;68.63
71384;BME280;67558;52.166;5.004;2023-05-10T05:43:20;101044.59;;;16.09;68.63
71384;BME280;67558;52.166;5.004;2023-05-10T05:45:45;101057.91;;;16.19;68.51
71384;BME280;67558;52.166;5.004;2023-05-10T05:48:10;101063.81;;;16.21;68.38
71384;BME280;67558;52.166;5.004;2023-05-10T05:50:36;101058.41;;;16.21;68.67
71384;BME280;67558;52.166;5.004;2023-05-10T05:53:01;101063.25;;;16.24;68.49
71384;BME280;67558;52.166;5.004;2023-05-10T05:55:27;101055.22;;;16.19;68.20
71384;BME280;67558;52.166;5.004;2023-05-10T05:57:52;101065.84;;;16.29;68.14
71384;BME280;67558;52.166;5.004;2023-05-10T06:00:18;101068.03;;;16.27;68.08
71384;BME280;67558;52.166;5.004;2023-05-10T06:02:44;101068.81;;;16.28;68.04
71384;BME280;67558;52.166;5.004;2023-05-10T06:05:09;101076.34;;;16.31;67.99
71384;BME280;67558;52.166;5.004;2023-05-10T06:07:34;101065.44;;;16.22;67.82
71384;BME280;67558;52.166;5.004;2023-05-10T06:10:00;101056.50;;;16.22;67.43
71384;BME280;67558;52.166;5.004;2023-05-10T06:12:25;101082.31;;;16.28;67.51
71384;BME280;67558;52.166;5.004;2023-05-10T06:14:50;101079.44;;;16.24;67.54
71384;BME280;67558;52.166;5.004;2023-05-10T06:17:16;101077.03;;;16.23;67.61
71384;BME280;67558;52.166;5.004;2023-05-10T06:19:42;101065.50;;;16.17;67.58
71384;BME280;67558;52.166;5.004;2023-05-10T06:22:07;101075.13;;;16.23;67.47
71384;BME280;67558;52.166;5.004;2023-05-10T06:24:33;101070.31;;;16.20;67.52
71384;BME280;67558;52.166;5.004;2023-05-10T06:26:59;101072.41;;;16.23;67.64
71384;BME280;67558;52.166;5.004;2023-05-10T06:29:26;101080.34;;;16.33;67.65
71384;BME280;67558;52.166;5.004;2023-05-10T06:31:52;101066.06;;;16.33;67.60
71384;BME280;67558;52.166;5.004;2023-05-10T06:34:18;101086.66;;;16.43;67.31
71384;BME280;67558;52.166;5.004;2023-05-10T06:36:43;101088.66;;;16.51;67.20
71384;BME280;67558;52.166;5.004;2023-05-10T06:39:08;101085.06;;;16.55;67.43
71384;BME280;67558;52.166;5.004;2023-05-10T06:41:34;101082.28;;;16.61;67.11
71384;BME280;67558;52.166;5.004;2023-05-10T06:43:59;101088.09;;;16.68;67.06
71384;BME280;67558;52.166;5.004;2023-05-10T06:46:25;101080.19;;;16.71;66.72
71384;BME280;67558;52.166;5.004;2023-05-10T06:48:50;101085.31;;;16.87;66.64
71384;BME280;67558;52.166;5.004;2023-05-10T06:51:16;101092.72;;;16.95;66.75
71384;BME280;67558;52.166;5.004;2023-05-10T06:53:41;101095.31;;;17.00;66.28
71384;BME280;67558;52.166;5.004;2023-05-10T06:56:06;101095.03;;;17.02;66.19
71384;BME280;67558;52.166;5.004;2023-05-10T06:58:32;101098.03;;;17.00;66.01
71384;BME280;67558;52.166;5.004;2023-05-10T07:01:04;101093.13;;;17.02;66.34
71384;BME280;67558;52.166;5.004;2023-05-10T07:03:30;101104.94;;;17.06;65.88
71384;BME280;67558;52.166;5.004;2023-05-10T07:06:00;101106.53;;;17.07;65.56
71384;BME280;67558;52.166;5.004;2023-05-10T07:08:26;101113.72;;;17.12;65.74
71384;BME280;67558;52.166;5.004;2023-05-10T07:10:52;101102.72;;;17.08;65.69
71384;BME280;67558;52.166;5.004;2023-05-10T07:13:17;101101.63;;;17.09;66.03
71384;BME280;67558;52.166;5.004;2023-05-10T07:15:42;101103.81;;;17.07;65.74
71384;BME280;67558;52.166;5.004;2023-05-10T07:18:08;101111.34;;;17.10;65.55
71384;BME280;67558;52.166;5.004;2023-05-10T07:20:33;101112.13;;;17.11;65.97
71384;BME280;67558;52.166;5.004;2023-05-10T07:22:59;101115.91;;;17.10;65.93
71384;BME280;67558;52.166;5.004;2023-05-10T07:25:24;101112.72;;;17.08;65.76
71384;BME280;67558;52.166;5.004;2023-05-10T07:27:49;101124.13;;;17.05;65.82
71384;BME280;67558;52.166;5.004;2023-05-10T07:30:16;101116.94;;;17.00;65.96
71384;BME280;67558;52.166;5.004;2023-05-10T07:32:41;101120.44;;;17.01;66.19
71384;BME280;67558;52.166;5.004;2023-05-10T07:35:07;101124.13;;;17.05;66.28
71384;BME280;67558;52.166;5.004;2023-05-10T07:37:33;101131.97;;;17.06;66.17
71384;BME280;67558;52.166;5.004;2023-05-10T07:39:58;101125.13;;;16.95;66.22
71384;BME280;67558;52.166;5.004;2023-05-10T07:42:24;101141.75;;;17.02;65.84
71384;BME280;67558;52.166;5.004;2023-05-10T07:44:49;101140.56;;;17.08;65.82
71384;BME280;67558;52.166;5.004;2023-05-10T07:47:14;101127.25;;;16.98;66.20
71384;BME280;67558;52.166;5.004;2023-05-10T07:49:40;101138.06;;;16.98;65.87
71384;BME280;67558;52.166;5.004;2023-05-10T07:52:05;101124.16;;;16.91;65.80
71384;BME280;67558;52.166;5.004;2023-05-10T07:54:31;101144.47;;;17.02;65.39
71384;BME280;67558;52.166;5.004;2023-05-10T07:56:56;101137.16;;;17.03;65.29
71384;BME280;67558;52.166;5.004;2023-05-10T07:59:22;101125.13;;;16.95;65.24
71384;BME280;67558;52.166;5.004;2023-05-10T08:01:47;101141.97;;;17.06;64.99
71384;BME280;67558;52.166;5.004;2023-05-10T08:04:12;101136.16;;;16.98;65.38
71384;BME280;67558;52.166;5.004;2023-05-10T08:06:39;101147.97;;;17.03;65.36
71384;BME280;67558;52.166;5.004;2023-05-10T08:09:05;101145.16;;;17.08;65.19
71384;BME280;67558;52.166;5.004;2023-05-10T08:11:30;101153.19;;;17.13;64.99
71384;BME280;67558;52.166;5.004;2023-05-10T08:13:55;101152.97;;;17.09;65.07
71384;BME280;67558;52.166;5.004;2023-05-10T08:16:21;101144.56;;;17.11;64.96
71384;BME280;67558;52.166;5.004;2023-05-10T08:18:46;101156.97;;;17.12;65.45
71384;BME280;67558;52.166;5.004;2023-05-10T08:21:13;101154.75;;;17.14;65.24
71384;BME280;67558;52.166;5.004;2023-05-10T08:23:39;101150.19;;;17.14;64.96
71384;BME280;67558;52.166;5.004;2023-05-10T08:26:04;101161.38;;;17.22;65.01
71384;BME280;67558;52.166;5.004;2023-05-10T08:28:30;101167.78;;;17.26;64.74
71384;BME280;67558;52.166;5.004;2023-05-10T08:30:55;101179.59;;;17.30;64.38
71384;BME280;67558;52.166;5.004;2023-05-10T08:33:21;101174.69;;;17.32;64.66
71384;BME280;67558;52.166;5.004;2023-05-10T08:35:46;101178.50;;;17.31;64.23
71384;BME280;67558;52.166;5.004;2023-05-10T08:38:12;101189.81;;;17.33;63.94
71384;BME280;67558;52.166;5.004;2023-05-10T08:40:40;101189.81;;;17.33;64.41
71384;BME280;67558;52.166;5.004;2023-05-10T08:43:08;101191.41;;;17.34;64.33
71384;BME280;67558;52.166;5.004;2023-05-10T08:45:39;101188.22;;;17.32;64.37
71384;BME280;67558;52.166;5.004;2023-05-10T08:48:06;101197.31;;;17.36;64.73
71384;BME280;67558;52.166;5.004;2023-05-10T08:50:38;101178.59;;;17.26;64.48
71384;BME280;67558;52.166;5.004;2023-05-10T08:53:06;101196.31;;;17.46;64.73
71384;BME280;67558;52.166;5.004;2023-05-10T08:55:32;101199.59;;;17.56;64.53
71384;BME280;67558;52.166;5.004;2023-05-10T08:57:59;101199.97;;;17.64;64.45
71384;BME280;67558;52.166;5.004;2023-05-10T09:00:25;101200.38;;;17.71;63.91
71384;BME280;67558;52.166;5.004;2023-05-10T09:02:51;101195.47;;;17.73;63.92
71384;BME280;67558;52.166;5.004;2023-05-10T09:05:17;101166.06;;;17.57;64.11
71384;BME280;67558;52.166;5.004;2023-05-10T09:07:42;101197.25;;;17.77;63.70
71384;BME280;67558;52.166;5.004;2023-05-10T09:10:09;101209.00;;;17.87;63.81
71384;BME280;67558;52.166;5.004;2023-05-10T09:12:35;101191.97;;;17.86;63.65
71384;BME280;67558;52.166;5.004;2023-05-10T09:15:02;101199.94;;;17.91;63.41
71384;BME280;67558;52.166;5.004;2023-05-10T09:17:28;101201.38;;;17.89;63.56
71384;BME280;67558;52.166;5.004;2023-05-10T09:20:02;101208.06;;;17.91;63.38
71384;BME280;67558;52.166;5.004;2023-05-10T09:22:28;101216.75;;;18.02;63.15
71384;BME280;67558;52.166;5.004;2023-05-10T09:25:09;101219.16;;;18.04;63.05
71384;BME280;67558;52.166;5.004;2023-05-10T09:27:36;101215.84;;;18.07;62.95
71384;BME280;67558;52.166;5.004;2023-05-10T09:30:03;101213.75;;;18.04;62.72
71384;BME280;67558;52.166;5.004;2023-05-10T09:32:45;101220.75;;;18.05;62.95
71384;BME280;67558;52.166;5.004;2023-05-10T09:35:16;101226.19;;;18.05;62.92
71384;BME280;67558;52.166;5.004;2023-05-10T09:37:44;101219.78;;;18.00;62.69
71384;BME280;67558;52.166;5.004;2023-05-10T09:40:14;101228.09;;;18.04;62.96
71384;BME280;67558;52.166;5.004;2023-05-10T09:42:42;101227.91;;;18.00;62.48
71384;BME280;67558;52.166;5.004;2023-05-10T09:45:08;101229.50;;;18.01;62.59
71384;BME280;67558;52.166;5.004;2023-05-10T09:47:34;101226.59;;;17.98;62.36
71384;BME280;67558;52.166;5.004;2023-05-10T09:50:00;101220.81;;;17.91;62.43
71384;BME280;67558;52.166;5.004;2023-05-10T09:55:15;101233.34;;;18.00;62.77
71384;BME280;67558;52.166;5.004;2023-05-10T09:57:40;101238.41;;;18.02;62.51
71384;BME280;67558;52.166;5.004;2023-05-10T10:00:07;101243.53;;;18.04;62.73
71384;BME280;67558;52.166;5.004;2023-05-10T10:02:32;101248.31;;;18.07;62.77
71384;BME280;67558;52.166;5.004;2023-05-10T10:05:00;101241.19;;;18.11;62.74
71384;BME280;67558;52.166;5.004;2023-05-10T10:07:26;101242.69;;;18.17;62.60
71384;BME280;67558;52.166;5.004;2023-05-10T10:09:53;101255.31;;;18.21;62.34
71384;BME280;67558;52.166;5.004;2023-05-10T10:12:19;101213.38;;;17.96;62.27
71384;BME280;67558;52.166;5.004;2023-05-10T10:14:46;101248.59;;;18.19;62.54
71384;BME280;67558;52.166;5.004;2023-05-10T10:17:12;101254.81;;;18.19;62.48
71384;BME280;67558;52.166;5.004;2023-05-10T10:19:38;101243.19;;;18.19;62.71
71384;BME280;67558;52.166;5.004;2023-05-10T10:22:04;101238.06;;;18.17;62.41
71384;BME280;67558;52.166;5.004;2023-05-10T10:24:30;101244.53;;;18.30;62.72
71384;BME280;67558;52.166;5.004;2023-05-10T10:26:59;101249.72;;;18.40;62.30
71384;BME280;67558;52.166;5.004;2023-05-10T10:29:44;101258.09;;;18.53;62.29
71384;BME280;67558;52.166;5.004;2023-05-10T10:32:42;101250.34;;;18.60;62.00
71384;BME280;67558;52.166;5.004;2023-05-10T10:35:13;101254.09;;;18.73;62.06
71384;BME280;67558;52.166;5.004;2023-05-10T10:37:50;101249.38;;;18.78;61.43
71384;BME280;67558;52.166;5.004;2023-05-10T10:40:32;101253.06;;;18.82;60.90
71384;BME280;67558;52.166;5.004;2023-05-10T10:43:27;101253.56;;;18.85;60.46
71384;BME280;67558;52.166;5.004;2023-05-10T10:46:13;101257.75;;;18.91;60.40
71384;BME280;67558;52.166;5.004;2023-05-10T10:51:23;101258.44;;;19.05;60.83
71384;BME280;67558;52.166;5.004;2023-05-10T10:53:48;101253.22;;;19.09;60.12
71384;BME280;67558;52.166;5.004;2023-05-10T10:56:14;101259.44;;;19.09;59.90
71384;BME280;67558;52.166;5.004;2023-05-10T10:58:41;101260.22;;;19.10;59.77
71384;BME280;67558;52.166;5.004;2023-05-10T11:01:14;101259.56;;;19.04;59.68
71384;BME280;67558;52.166;5.004;2023-05-10T11:03:40;101253.66;;;19.02;59.51
71384;BME280;67558;52.166;5.004;2023-05-10T11:06:05;101265.75;;;18.96;59.67
71384;BME280;67558;52.166;5.004;2023-05-10T11:08:32;101255.78;;;18.82;59.97
71384;BME280;67558;52.166;5.004;2023-05-10T11:13:48;101268.75;;;18.72;60.34
71384;BME280;67558;52.166;5.004;2023-05-10T11:16:24;101266.50;;;18.65;60.79
71384;BME280;67558;52.166;5.004;2023-05-10T11:19:04;101274.91;;;18.63;60.89
71384;BME280;67558;52.166;5.004;2023-05-10T11:21:32;101271.91;;;18.65;60.90
71384;BME280;67558;52.166;5.004;2023-05-10T11:23:59;101269.50;;;18.63;60.62
71384;BME280;67558;52.166;5.004;2023-05-10T11:26:30;101264.09;;;18.63;60.57
71384;BME280;67558;52.166;5.004;2023-05-10T11:28:55;101264.78;;;18.69;60.39
71384;BME280;67558;52.166;5.004;2023-05-10T11:31:22;101263.19;;;18.77;60.50
71384;BME280;67558;52.166;5.004;2023-05-10T11:33:50;101262.31;;;18.81;60.46
71384;BME280;67558;52.166;5.004;2023-05-10T11:36:18;101263.47;;;18.89;60.11
71384;BME280;67558;52.166;5.004;2023-05-10T11:38:44;101258.53;;;18.91;59.83
71384;BME280;67558;52.166;5.004;2023-05-10T11:41:10;101263.38;;;19.03;59.98
71384;BME280;67558;52.166;5.004;2023-05-10T11:43:37;101270.75;;;19.11;59.83
71384;BME280;67558;52.166;5.004;2023-05-10T11:46:08;101258.19;;;19.15;59.63
71384;BME280;67558;52.166;5.004;2023-05-10T11:48:35;101257.69;;;19.13;59.40
71384;BME280;67558;52.166;5.004;2023-05-10T11:51:01;101260.41;;;19.13;59.04
71384;BME280;67558;52.166;5.004;2023-05-10T11:53:29;101269.66;;;19.12;59.04
71384;BME280;67558;52.166;5.004;2023-05-10T11:55:54;101261.66;;;19.07;59.00
71384;BME280;67558;52.166;5.004;2023-05-10T11:58:20;101262.72;;;18.97;59.39
71384;BME280;67558;52.166;5.004;2023-05-10T12:00:46;101268.31;;;19.01;59.63
71384;BME280;67558;52.166;5.004;2023-05-10T12:03:13;101265.44;;;18.97;59.95
71384;BME280;67558;52.166;5.004;2023-05-10T12:05:38;101272.44;;;18.98;59.68
71384;BME280;67558;52.166;5.004;2023-05-10T12:08:14;101236.84;;;18.69;59.90
71384;BME280;67558;52.166;5.004;2023-05-10T12:10:39;101277.19;;;18.93;59.85
71384;BME280;67558;52.166;5.004;2023-05-10T12:13:05;101283.69;;;18.83;60.01
71384;BME280;67558;52.166;5.004;2023-05-10T12:15:32;101277.88;;;18.76;60.15
71384;BME280;67558;52.166;5.004;2023-05-10T12:17:57;101288.72;;;18.76;60.39
71384;BME280;67558;52.166;5.004;2023-05-10T12:20:27;101289.25;;;18.64;60.38
71384;BME280;67558;52.166;5.004;2023-05-10T12:22:54;101298.00;;;18.61;60.73
71384;BME280;67558;52.166;5.004;2023-05-10T12:25:22;101297.03;;;18.57;60.80
71384;BME280;67558;52.166;5.004;2023-05-10T12:27:56;101302.97;;;18.45;61.17
71384;BME280;67558;52.166;5.004;2023-05-10T12:30:26;101300.19;;;18.36;61.31
71384;BME280;67558;52.166;5.004;2023-05-10T12:32:52;101304.94;;;18.31;61.66
71384;BME280;67558;52.166;5.004;2023-05-10T12:35:18;101307.56;;;18.22;62.05
71384;BME280;67558;52.166;5.004;2023-05-10T12:37:49;101313.09;;;18.17;62.43
71384;BME280;67558;52.166;5.004;2023-05-10T12:40:14;101313.19;;;18.12;62.73
71384;BME280;67558;52.166;5.004;2023-05-10T12:42:39;101301.00;;;18.00;63.17
71384;BME280;67558;52.166;5.004;2023-05-10T12:45:06;101314.72;;;18.04;63.61
71384;BME280;67558;52.166;5.004;2023-05-10T12:47:32;101314.03;;;17.98;63.56
71384;BME280;67558;52.166;5.004;2023-05-10T12:49:59;101313.41;;;18.01;63.84
71384;BME280;67558;52.166;5.004;2023-05-10T12:52:25;101325.53;;;18.04;63.84
71384;BME280;67558;52.166;5.004;2023-05-10T12:54:51;101323.63;;;18.05;64.33
71384;BME280;67558;52.166;5.004;2023-05-10T12:57:16;101325.84;;;18.03;64.87
71384;BME280;67558;52.166;5.004;2023-05-10T12:59:42;101331.44;;;18.06;64.28
71384;BME280;67558;52.166;5.004;2023-05-10T13:02:08;101334.16;;;18.06;64.41
71384;BME280;67558;52.166;5.004;2023-05-10T13:04:33;101332.94;;;18.12;64.47
71384;BME280;67558;52.166;5.004;2023-05-10T13:06:59;101334.06;;;18.11;64.38
71384;BME280;67558;52.166;5.004;2023-05-10T13:09:25;101340.16;;;18.17;64.59
71384;BME280;67558;52.166;5.004;2023-05-10T13:11:51;101332.81;;;18.17;64.54
71384;BME280;67558;52.166;5.004;2023-05-10T13:14:18;101341.94;;;18.21;64.71